Time,TemperatureF,DewpointF,PressureIn,WindDirection,WindDirectionDegrees,WindSpeedMPH,WindSpeedGustMPH,Humidity,HourlyPrecipIn,Conditions,Clouds,dailyrainin,SoftwareType,DateUTC
2013-05-04 00:01:00,42.3,37.8,30.37,ESE,109,0.0,0.0,84,0.00,,,0.00,meteohub,2013-05-04 04:01:00,
2013-05-04 00:02:00,42.1,37.6,30.37,ESE,119,0.0,0.0,84,0.00,,,0.00,meteohub,2013-05-04 04:02:00,
2013-05-04 00:07:00,42.1,37.9,30.37,East,98,0.0,0.0,85,0.00,,,0.00,meteohub,2013-05-04 04:07:00,
2013-05-04 00:12:00,42.1,37.9,30.37,East,98,0.0,0.0,85,0.00,,,0.00,meteohub,2013-05-04 04:12:00,
2013-05-04 00:17:00,42.1,37.9,30.37,East,98,0.0,0.0,85,0.00,,,0.00,meteohub,2013-05-04 04:17:00,
2013-05-04 00:22:00,42.1,37.9,30.37,East,99,0.0,0.0,85,0.00,,,0.00,meteohub,2013-05-04 04:22:00,
2013-05-04 00:27:00,41.9,37.9,30.36,East,101,0.0,0.0,86,0.00,,,0.00,meteohub,2013-05-04 04:27:00,
2013-05-04 00:32:00,41.9,37.9,30.36,East,97,0.0,0.0,86,0.00,,,0.00,meteohub,2013-05-04 04:32:00,
2013-05-04 00:37:00,41.7,37.8,30.36,East,98,0.0,0.0,86,0.00,,,0.00,meteohub,2013-05-04 04:37:00,
2013-05-04 00:42:00,41.5,37.9,30.36,SE,136,0.0,0.0,87,0.00,,,0.00,meteohub,2013-05-04 04:42:00,
2013-05-04 00:47:00,41.5,37.9,30.36,East,101,0.0,0.0,87,0.00,,,0.00,meteohub,2013-05-04 04:47:00,
2013-05-04 00:52:00,41.5,37.9,30.36,East,100,0.0,0.0,87,0.00,,,0.00,meteohub,2013-05-04 04:52:00,
2013-05-04 00:57:00,41.4,37.8,30.36,East,97,0.0,0.0,87,0.00,,,0.00,meteohub,2013-05-04 04:57:00,
2013-05-04 01:02:00,41.4,37.8,30.36,East,96,0.0,0.0,87,0.00,,,0.00,meteohub,2013-05-04 05:02:00,
2013-05-04 01:07:00,41.2,37.9,30.35,East,96,0.0,0.0,88,0.00,,,0.00,meteohub,2013-05-04 05:07:00,
2013-05-04 01:12:00,41.2,37.9,30.35,East,96,0.0,0.0,88,0.00,,,0.00,meteohub,2013-05-04 05:12:00,
2013-05-04 01:17:00,41.0,37.8,30.35,East,97,0.0,0.0,88,0.00,,,0.00,meteohub,2013-05-04 05:17:00,
2013-05-04 01:22:00,40.8,37.6,30.35,East,98,0.0,0.0,88,0.00,,,0.00,meteohub,2013-05-04 05:22:00,
2013-05-04 01:27:00,40.6,37.4,30.35,East,98,0.0,0.0,88,0.00,,,0.00,meteohub,2013-05-04 05:27:00,
2013-05-04 01:32:00,40.6,37.6,30.35,East,98,0.0,0.0,89,0.00,,,0.00,meteohub,2013-05-04 05:32:00,
2013-05-04 01:37:00,40.5,37.4,30.35,East,98,0.0,0.0,89,0.00,,,0.00,meteohub,2013-05-04 05:37:00,
2013-05-04 01:42:00,40.5,37.4,30.34,East,99,0.0,0.0,89,0.00,,,0.00,meteohub,2013-05-04 05:42:00,
2013-05-04 01:47:00,40.3,37.2,30.34,East,100,0.0,0.0,89,0.00,,,0.00,meteohub,2013-05-04 05:47:00,
2013-05-04 01:52:00,40.3,37.6,30.34,East,101,0.0,0.0,90,0.00,,,0.00,meteohub,2013-05-04 05:52:00,
2013-05-04 01:57:00,40.1,37.4,30.34,SE,142,0.0,0.0,90,0.00,,,0.00,meteohub,2013-05-04 05:57:00,
2013-05-04 02:02:00,39.9,37.2,30.34,ESE,121,0.0,0.0,90,0.00,,,0.00,meteohub,2013-05-04 06:02:00,
2013-05-04 02:07:00,39.7,37.0,30.33,ESE,106,0.0,0.0,90,0.00,,,0.00,meteohub,2013-05-04 06:07:00,
2013-05-04 02:12:00,39.7,37.0,30.33,ESE,121,0.0,0.0,90,0.00,,,0.00,meteohub,2013-05-04 06:12:00,
2013-05-04 02:17:00,39.6,36.9,30.34,ESE,122,0.0,0.0,90,0.00,,,0.00,meteohub,2013-05-04 06:17:00,
2013-05-04 02:22:00,39.6,37.2,30.33,ESE,123,0.0,0.0,91,0.00,,,0.00,meteohub,2013-05-04 06:22:00,
2013-05-04 02:27:00,39.6,37.2,30.33,ESE,123,0.0,0.0,91,0.00,,,0.00,meteohub,2013-05-04 06:27:00,
2013-05-04 02:32:00,39.6,37.2,30.33,ESE,122,0.0,0.0,91,0.00,,,0.00,meteohub,2013-05-04 06:32:00,
2013-05-04 02:37:00,39.4,37.0,30.32,ESE,110,0.0,0.0,91,0.00,,,0.00,meteohub,2013-05-04 06:37:00,
2013-05-04 02:42:00,39.2,36.9,30.32,ESE,105,0.0,0.0,91,0.00,,,0.00,meteohub,2013-05-04 06:42:00,
2013-05-04 02:47:00,39.2,36.9,30.32,ESE,104,0.0,0.0,91,0.00,,,0.00,meteohub,2013-05-04 06:47:00,
2013-05-04 02:52:00,39.2,37.0,30.32,East,101,0.0,0.0,92,0.00,,,0.00,meteohub,2013-05-04 06:52:00,
2013-05-04 02:57:00,39.0,36.7,30.32,East,101,0.0,0.0,91,0.00,,,0.00,meteohub,2013-05-04 06:57:00,
2013-05-04 03:02:00,39.0,36.7,30.32,East,98,0.0,0.0,91,0.00,,,0.00,meteohub,2013-05-04 07:02:00,
2013-05-04 03:07:00,39.0,36.7,30.32,East,98,0.0,0.0,91,0.00,,,0.00,meteohub,2013-05-04 07:07:00,
2013-05-04 03:12:00,38.8,36.7,30.32,East,98,0.0,0.0,92,0.00,,,0.00,meteohub,2013-05-04 07:12:00,
2013-05-04 03:17:00,38.8,36.7,30.32,East,98,0.0,0.0,92,0.00,,,0.00,meteohub,2013-05-04 07:17:00,
2013-05-04 03:22:00,38.7,36.5,30.32,East,98,0.0,0.0,92,0.00,,,0.00,meteohub,2013-05-04 07:22:00,
2013-05-04 03:27:00,38.7,36.5,30.32,East,98,0.0,0.0,92,0.00,,,0.00,meteohub,2013-05-04 07:27:00,
2013-05-04 03:32:00,38.7,36.5,30.32,East,98,0.0,0.0,92,0.00,,,0.00,meteohub,2013-05-04 07:32:00,
2013-05-04 03:37:00,38.7,36.5,30.32,East,99,0.0,0.0,92,0.00,,,0.00,meteohub,2013-05-04 07:37:00,
2013-05-04 03:42:00,38.5,36.3,30.32,East,100,0.0,0.0,92,0.00,,,0.00,meteohub,2013-05-04 07:42:00,
2013-05-04 03:47:00,38.5,36.3,30.32,SE,130,0.0,0.0,92,0.00,,,0.00,meteohub,2013-05-04 07:47:00,
2013-05-04 03:52:00,38.5,36.7,30.32,SE,125,0.0,0.0,93,0.00,,,0.00,meteohub,2013-05-04 07:52:00,
2013-05-04 03:57:00,38.5,36.7,30.32,ESE,122,0.0,0.0,93,0.00,,,0.00,meteohub,2013-05-04 07:57:00,
2013-05-04 04:02:00,38.5,36.7,30.32,ESE,121,0.0,0.0,93,0.00,,,0.00,meteohub,2013-05-04 08:02:00,
2013-05-04 04:07:00,38.5,36.7,30.32,ESE,116,0.0,0.0,93,0.00,,,0.00,meteohub,2013-05-04 08:07:00,
2013-05-04 04:12:00,38.3,36.5,30.32,ESE,113,0.0,0.0,93,0.00,,,0.00,meteohub,2013-05-04 08:12:00,
2013-05-04 04:17:00,38.1,36.3,30.31,ESE,121,0.0,0.0,93,0.00,,,0.00,meteohub,2013-05-04 08:17:00,
2013-05-04 04:22:00,38.1,36.3,30.32,East,98,0.0,0.0,93,0.00,,,0.00,meteohub,2013-05-04 08:22:00,
2013-05-04 04:27:00,38.1,36.3,30.31,East,97,0.0,0.0,93,0.00,,,0.00,meteohub,2013-05-04 08:27:00,
2013-05-04 04:32:00,38.1,36.3,30.31,East,97,0.0,0.0,93,0.00,,,0.00,meteohub,2013-05-04 08:32:00,
2013-05-04 04:37:00,37.9,36.1,30.31,East,97,0.0,0.0,93,0.00,,,0.00,meteohub,2013-05-04 08:37:00,
2013-05-04 04:42:00,37.9,36.1,30.31,East,97,0.0,0.0,93,0.00,,,0.00,meteohub,2013-05-04 08:42:00,
2013-05-04 04:47:00,37.8,35.6,30.31,East,97,0.0,0.0,92,0.00,,,0.00,meteohub,2013-05-04 08:47:00,
2013-05-04 04:52:00,37.8,36.0,30.31,East,97,0.0,0.0,93,0.00,,,0.00,meteohub,2013-05-04 08:52:00,
2013-05-04 04:57:00,37.6,35.8,30.31,East,97,0.0,0.0,93,0.00,,,0.00,meteohub,2013-05-04 08:57:00,
2013-05-04 05:02:00,37.8,36.0,30.31,East,97,0.0,0.0,93,0.00,,,0.00,meteohub,2013-05-04 09:02:00,
2013-05-04 05:07:00,37.8,36.0,30.31,East,97,0.0,0.0,93,0.00,,,0.00,meteohub,2013-05-04 09:07:00,
2013-05-04 05:12:00,37.8,36.0,30.31,East,97,0.0,0.0,93,0.00,,,0.00,meteohub,2013-05-04 09:12:00,
2013-05-04 05:17:00,37.8,36.0,30.31,East,97,0.0,0.0,93,0.00,,,0.00,meteohub,2013-05-04 09:17:00,
2013-05-04 05:22:00,37.6,35.8,30.31,East,97,0.0,0.0,93,0.00,,,0.00,meteohub,2013-05-04 09:22:00,
2013-05-04 05:27:00,37.6,35.8,30.31,East,97,0.0,0.0,93,0.00,,,0.00,meteohub,2013-05-04 09:27:00,
2013-05-04 05:32:00,37.4,35.8,30.32,East,97,0.0,0.0,94,0.00,,,0.00,meteohub,2013-05-04 09:32:00,
2013-05-04 05:37:00,37.4,35.8,30.32,East,97,0.0,0.0,94,0.00,,,0.00,meteohub,2013-05-04 09:37:00,
2013-05-04 05:42:00,37.4,35.8,30.32,East,97,0.0,0.0,94,0.00,,,0.00,meteohub,2013-05-04 09:42:00,
2013-05-04 05:47:00,37.4,35.8,30.32,East,97,0.0,0.0,94,0.00,,,0.00,meteohub,2013-05-04 09:47:00,
2013-05-04 05:52:00,37.2,35.6,30.32,East,97,0.0,0.0,94,0.00,,,0.00,meteohub,2013-05-04 09:52:00,
2013-05-04 05:57:00,37.2,35.4,30.32,East,97,0.0,0.0,93,0.00,,,0.00,meteohub,2013-05-04 09:57:00,
2013-05-04 06:02:00,37.2,35.6,30.32,East,97,0.0,0.0,94,0.00,,,0.00,meteohub,2013-05-04 10:02:00,
2013-05-04 06:07:00,37.2,35.6,30.32,East,97,0.0,0.0,94,0.00,,,0.00,meteohub,2013-05-04 10:07:00,
2013-05-04 06:12:00,37.2,35.6,30.32,East,97,0.0,0.0,94,0.00,,,0.00,meteohub,2013-05-04 10:12:00,
2013-05-04 06:17:00,37.2,35.6,30.32,East,97,0.0,0.0,94,0.00,,,0.00,meteohub,2013-05-04 10:17:00,
2013-05-04 06:22:00,37.2,35.6,30.32,East,97,0.0,0.0,94,0.00,,,0.00,meteohub,2013-05-04 10:22:00,
2013-05-04 06:27:00,37.2,35.6,30.32,East,97,0.0,0.0,94,0.00,,,0.00,meteohub,2013-05-04 10:27:00,
2013-05-04 06:32:00,37.2,35.6,30.32,East,97,0.0,0.0,94,0.00,,,0.00,meteohub,2013-05-04 10:32:00,
2013-05-04 06:37:00,37.2,35.6,30.33,East,97,0.0,0.0,94,0.00,,,0.00,meteohub,2013-05-04 10:37:00,
2013-05-04 06:42:00,37.4,36.1,30.33,East,97,0.0,0.0,95,0.00,,,0.00,meteohub,2013-05-04 10:42:00,
2013-05-04 06:47:00,37.6,36.3,30.33,East,97,0.0,0.0,95,0.00,,,0.00,meteohub,2013-05-04 10:47:00,
2013-05-04 06:52:00,37.8,36.5,30.33,East,97,0.0,0.0,95,0.00,,,0.00,meteohub,2013-05-04 10:52:00,
2013-05-04 06:57:00,38.1,36.9,30.33,East,97,0.0,0.0,95,0.00,,,0.00,meteohub,2013-05-04 10:57:00,
2013-05-04 07:02:00,38.5,37.2,30.33,East,97,0.0,0.0,95,0.00,,,0.00,meteohub,2013-05-04 11:02:00,
2013-05-04 07:07:00,38.8,37.6,30.33,East,97,0.0,0.0,95,0.00,,,0.00,meteohub,2013-05-04 11:07:00,
2013-05-04 07:12:00,39.0,37.9,30.33,East,97,0.0,0.0,96,0.00,,,0.00,meteohub,2013-05-04 11:12:00,
2013-05-04 07:17:00,39.6,38.5,30.33,East,97,0.0,0.0,96,0.00,,,0.00,meteohub,2013-05-04 11:17:00,
2013-05-04 07:22:00,39.7,38.7,30.33,East,97,0.0,0.0,96,0.00,,,0.00,meteohub,2013-05-04 11:22:00,
2013-05-04 07:27:00,40.3,39.2,30.33,East,97,0.0,0.0,96,0.00,,,0.00,meteohub,2013-05-04 11:27:00,
2013-05-04 07:32:00,40.8,39.7,30.33,East,97,0.0,0.0,96,0.00,,,0.00,meteohub,2013-05-04 11:32:00,
2013-05-04 07:37:00,41.4,40.3,30.33,East,97,1.0,1.0,96,0.00,,,0.00,meteohub,2013-05-04 11:37:00,
2013-05-04 07:42:00,42.1,41.0,30.33,East,89,0.0,2.0,96,0.00,,,0.00,meteohub,2013-05-04 11:42:00,
2013-05-04 07:47:00,42.6,41.5,30.33,East,88,1.0,2.0,96,0.00,,,0.00,meteohub,2013-05-04 11:47:00,
2013-05-04 07:52:00,43.9,42.8,30.33,NE,53,2.0,4.0,96,0.00,,,0.00,meteohub,2013-05-04 11:52:00,
2013-05-04 07:57:00,45.0,44.2,30.33,NNE,32,0.0,4.0,97,0.00,,,0.00,meteohub,2013-05-04 11:57:00,
2013-05-04 08:02:00,45.9,44.4,30.33,NE,38,2.0,4.0,95,0.00,,,0.00,meteohub,2013-05-04 12:02:00,
2013-05-04 08:07:00,46.9,44.4,30.33,East,96,1.0,4.0,91,0.00,,,0.00,meteohub,2013-05-04 12:07:00,
2013-05-04 08:12:00,47.7,44.2,30.33,NE,42,2.0,4.0,88,0.00,,,0.00,meteohub,2013-05-04 12:12:00,
2013-05-04 08:17:00,48.4,44.4,30.33,NE,34,3.0,4.0,86,0.00,,,0.00,meteohub,2013-05-04 12:17:00,
2013-05-04 08:22:00,48.7,44.4,30.33,NNE,33,3.0,5.0,85,0.00,,,0.00,meteohub,2013-05-04 12:22:00,
2013-05-04 08:27:00,49.5,44.6,30.33,NE,45,1.0,5.0,83,0.00,,,0.00,meteohub,2013-05-04 12:27:00,
2013-05-04 08:32:00,50.2,45.1,30.33,NE,51,3.0,5.0,83,0.00,,,0.00,meteohub,2013-05-04 12:32:00,
2013-05-04 08:37:00,51.3,45.7,30.34,NE,46,1.0,5.0,81,0.00,,,0.00,meteohub,2013-05-04 12:37:00,
2013-05-04 08:42:00,52.3,45.3,30.34,ENE,59,3.0,4.0,77,0.00,,,0.00,meteohub,2013-05-04 12:42:00,
2013-05-04 08:47:00,53.2,45.5,30.34,NE,51,4.0,4.0,75,0.00,,,0.00,meteohub,2013-05-04 12:47:00,
2013-05-04 08:52:00,54.0,46.2,30.34,NE,48,3.0,4.0,75,0.00,,,0.00,meteohub,2013-05-04 12:52:00,
2013-05-04 08:57:00,54.9,46.0,30.33,East,83,1.0,5.0,72,0.00,,,0.00,meteohub,2013-05-04 12:57:00,
2013-05-04 09:02:00,55.0,45.9,30.33,North,9,3.0,5.0,71,0.00,,,0.00,meteohub,2013-05-04 13:02:00,
2013-05-04 09:04:00,55.2,46.0,30.33,East,82,3.0,5.0,71,0.00,,,0.00,meteohub,2013-05-04 13:04:00,
2013-05-04 09:09:00,55.2,45.1,30.33,NNE,19,4.0,5.0,69,0.00,,,0.00,meteohub,2013-05-04 13:09:00,
2013-05-04 09:14:00,55.2,45.1,30.33,NNE,24,4.0,6.0,69,0.00,,,0.00,meteohub,2013-05-04 13:14:00,
2013-05-04 09:19:00,55.8,45.7,30.33,ENE,58,2.0,6.0,69,0.00,,,0.00,meteohub,2013-05-04 13:19:00,
2013-05-04 09:24:00,56.1,45.3,30.33,ESE,113,1.0,6.0,67,0.00,,,0.00,meteohub,2013-05-04 13:24:00,
2013-05-04 09:29:00,56.3,45.5,30.32,ENE,69,3.0,5.0,67,0.00,,,0.00,meteohub,2013-05-04 13:29:00,
2013-05-04 09:34:00,56.7,45.5,30.32,NE,42,3.0,5.0,66,0.00,,,0.00,meteohub,2013-05-04 13:34:00,
2013-05-04 09:39:00,57.4,45.0,30.32,NE,39,4.0,5.0,63,0.00,,,0.00,meteohub,2013-05-04 13:39:00,
2013-05-04 09:44:00,57.6,45.5,30.32,ESE,103,0.0,5.0,64,0.00,,,0.00,meteohub,2013-05-04 13:44:00,
2013-05-04 09:49:00,56.8,44.8,30.32,ESE,109,2.0,6.0,64,0.00,,,0.00,meteohub,2013-05-04 13:49:00,
2013-05-04 09:54:00,56.7,44.2,30.32,ENE,77,1.0,6.0,63,0.00,,,0.00,meteohub,2013-05-04 13:54:00,
2013-05-04 09:59:00,57.0,44.6,30.32,East,80,2.0,8.0,63,0.00,,,0.00,meteohub,2013-05-04 13:59:00,
2013-05-04 10:04:00,57.6,45.1,30.32,ENE,67,3.0,8.0,63,0.00,,,0.00,meteohub,2013-05-04 14:04:00,
2013-05-04 10:09:00,59.2,46.2,30.32,SE,124,0.0,8.0,62,0.00,,,0.00,meteohub,2013-05-04 14:09:00,
2013-05-04 10:14:00,57.7,44.8,30.32,NNE,13,2.0,5.0,62,0.00,,,0.00,meteohub,2013-05-04 14:14:00,
2013-05-04 10:19:00,58.5,46.4,30.32,SE,144,2.0,5.0,64,0.00,,,0.00,meteohub,2013-05-04 14:19:00,
2013-05-04 10:24:00,59.0,45.1,30.32,East,80,1.0,5.0,60,0.00,,,0.00,meteohub,2013-05-04 14:24:00,
2013-05-04 10:29:00,59.0,44.8,30.32,NE,43,2.0,5.0,59,0.00,,,0.00,meteohub,2013-05-04 14:29:00,
2013-05-04 10:34:00,60.1,45.7,30.32,NNE,18,4.0,5.0,59,0.00,,,0.00,meteohub,2013-05-04 14:34:00,
2013-05-04 10:39:00,60.8,45.5,30.32,ENE,72,2.0,5.0,57,0.00,,,0.00,meteohub,2013-05-04 14:39:00,
2013-05-04 10:44:00,61.7,45.9,30.32,East,80,1.0,5.0,56,0.00,,,0.00,meteohub,2013-05-04 14:44:00,
2013-05-04 10:49:00,61.3,45.5,30.31,SSW,198,2.0,5.0,56,0.00,,,0.00,meteohub,2013-05-04 14:49:00,
2013-05-04 10:54:00,61.7,45.3,30.31,ENE,67,4.0,5.0,55,0.00,,,0.00,meteohub,2013-05-04 14:54:00,
2013-05-04 10:59:00,62.1,45.1,30.31,ENE,57,0.0,5.0,54,0.00,,,0.00,meteohub,2013-05-04 14:59:00,
2013-05-04 11:04:00,61.3,44.1,30.31,SE,127,1.0,4.0,53,0.00,,,0.00,meteohub,2013-05-04 15:04:00,
2013-05-04 11:09:00,61.2,44.8,30.31,SSW,192,2.0,5.0,55,0.00,,,0.00,meteohub,2013-05-04 15:09:00,
2013-05-04 11:14:00,62.1,43.7,30.31,NE,53,4.0,5.0,51,0.00,,,0.00,meteohub,2013-05-04 15:14:00,
2013-05-04 11:19:00,63.0,44.6,30.30,NE,55,3.0,5.0,51,0.00,,,0.00,meteohub,2013-05-04 15:19:00,
2013-05-04 11:24:00,62.1,41.0,30.30,WSW,248,1.0,5.0,46,0.00,,,0.00,meteohub,2013-05-04 15:24:00,
2013-05-04 11:29:00,62.2,42.3,30.30,East,97,1.0,5.0,48,0.00,,,0.00,meteohub,2013-05-04 15:29:00,
2013-05-04 11:34:00,62.4,41.9,30.30,ENE,74,1.0,5.0,47,0.00,,,0.00,meteohub,2013-05-04 15:34:00,
2013-05-04 11:39:00,64.0,42.3,30.30,ENE,57,3.0,7.0,45,0.00,,,0.00,meteohub,2013-05-04 15:39:00,
2013-05-04 11:44:00,64.9,42.4,30.30,NE,45,2.0,7.0,44,0.00,,,0.00,meteohub,2013-05-04 15:44:00,
2013-05-04 11:49:00,63.1,41.5,30.30,ENE,61,2.0,7.0,45,0.00,,,0.00,meteohub,2013-05-04 15:49:00,
2013-05-04 11:54:00,63.3,41.0,30.30,ENE,62,2.0,6.0,44,0.00,,,0.00,meteohub,2013-05-04 15:54:00,
2013-05-04 11:59:00,64.0,42.3,30.30,SE,128,1.0,5.0,45,0.00,,,0.00,meteohub,2013-05-04 15:59:00,
2013-05-04 12:04:00,64.9,43.2,30.30,NNE,27,3.0,5.0,45,0.00,,,0.00,meteohub,2013-05-04 16:04:00,
2013-05-04 12:09:00,65.8,42.1,30.30,NNE,14,2.0,4.0,42,0.00,,,0.00,meteohub,2013-05-04 16:09:00,
2013-05-04 12:14:00,66.7,42.3,30.29,NE,40,4.0,5.0,41,0.00,,,0.00,meteohub,2013-05-04 16:14:00,
2013-05-04 12:19:00,66.2,41.7,30.29,East,100,0.0,7.0,41,0.00,,,0.00,meteohub,2013-05-04 16:19:00,
2013-05-04 12:24:00,65.5,41.7,30.29,NNW,336,1.0,7.0,42,0.00,,,0.00,meteohub,2013-05-04 16:24:00,
2013-05-04 12:29:00,65.7,40.6,30.28,ENE,64,5.0,7.0,40,0.00,,,0.00,meteohub,2013-05-04 16:29:00,
2013-05-04 12:34:00,66.6,43.3,30.29,NNE,29,4.0,8.0,43,0.00,,,0.00,meteohub,2013-05-04 16:34:00,
2013-05-04 12:40:00,66.6,41.5,30.28,NNE,17,2.0,8.0,40,0.00,,,0.00,meteohub,2013-05-04 16:40:00,
2013-05-04 12:45:00,66.7,40.3,30.28,SE,140,3.0,8.0,38,0.00,,,0.00,meteohub,2013-05-04 16:45:00,
2013-05-04 12:50:00,66.0,41.7,30.28,NE,46,5.0,12.0,41,0.00,,,0.00,meteohub,2013-05-04 16:50:00,
2013-05-04 12:55:00,66.4,40.6,30.28,East,80,1.0,12.0,39,0.00,,,0.00,meteohub,2013-05-04 16:55:00,
2013-05-04 13:00:00,65.7,41.9,30.28,SSE,158,1.0,12.0,42,0.00,,,0.00,meteohub,2013-05-04 17:00:00,
2013-05-04 13:05:00,66.9,42.4,30.28,NE,54,5.0,8.0,41,0.00,,,0.00,meteohub,2013-05-04 17:05:00,
2013-05-04 13:10:00,66.7,40.3,30.28,ENE,63,4.0,8.0,38,0.00,,,0.00,meteohub,2013-05-04 17:10:00,
2013-05-04 13:15:00,65.8,39.6,30.27,South,178,0.0,8.0,38,0.00,,,0.00,meteohub,2013-05-04 17:15:00,
2013-05-04 13:20:00,66.9,43.2,30.27,NNE,21,6.0,7.0,42,0.00,,,0.00,meteohub,2013-05-04 17:20:00,
2013-05-04 13:25:00,67.8,41.4,30.27,ESE,109,2.0,7.0,38,0.00,,,0.00,meteohub,2013-05-04 17:25:00,
2013-05-04 13:30:00,67.8,40.6,30.27,ENE,73,4.0,9.0,37,0.00,,,0.00,meteohub,2013-05-04 17:30:00,
2013-05-04 13:35:00,66.9,40.5,30.27,SSE,164,3.0,9.0,38,0.00,,,0.00,meteohub,2013-05-04 17:35:00,
2013-05-04 13:40:00,66.6,40.1,30.27,NE,42,2.0,10.0,38,0.00,,,0.00,meteohub,2013-05-04 17:40:00,
2013-05-04 13:45:00,67.6,39.7,30.27,ENE,73,1.0,10.0,36,0.00,,,0.00,meteohub,2013-05-04 17:45:00,
2013-05-04 13:50:00,67.6,39.7,30.27,ESE,121,1.0,10.0,36,0.00,,,0.00,meteohub,2013-05-04 17:50:00,
2013-05-04 13:55:00,67.6,40.5,30.26,ENE,65,4.0,7.0,37,0.00,,,0.00,meteohub,2013-05-04 17:55:00,
2013-05-04 14:00:00,68.4,43.2,30.26,NNE,24,2.0,7.0,40,0.00,,,0.00,meteohub,2013-05-04 18:00:00,
2013-05-04 14:05:00,68.2,39.6,30.26,SSE,165,3.0,12.0,35,0.00,,,0.00,meteohub,2013-05-04 18:05:00,
2013-05-04 14:10:00,66.9,39.0,30.26,SSW,203,3.0,12.0,36,0.00,,,0.00,meteohub,2013-05-04 18:10:00,
2013-05-04 14:15:00,66.4,39.4,30.26,East,80,2.0,12.0,37,0.00,,,0.00,meteohub,2013-05-04 18:15:00,
2013-05-04 14:20:00,67.6,41.2,30.26,ENE,70,5.0,6.0,38,0.00,,,0.00,meteohub,2013-05-04 18:20:00,
2013-05-04 14:25:00,68.2,39.6,30.26,ENE,69,5.0,6.0,35,0.00,,,0.00,meteohub,2013-05-04 18:25:00,
2013-05-04 14:30:00,68.4,38.8,30.26,NE,41,3.0,8.0,34,0.00,,,0.00,meteohub,2013-05-04 18:30:00,
2013-05-04 14:35:00,67.6,40.5,30.26,ESE,102,1.0,8.0,37,0.00,,,0.00,meteohub,2013-05-04 18:35:00,
2013-05-04 14:40:00,66.7,39.6,30.25,SSE,155,0.0,8.0,37,0.00,,,0.00,meteohub,2013-05-04 18:40:00,
2013-05-04 14:45:00,66.4,38.7,30.25,SE,146,3.0,7.0,36,0.00,,,0.00,meteohub,2013-05-04 18:45:00,
2013-05-04 14:50:00,67.5,39.6,30.25,ENE,62,5.0,7.0,36,0.00,,,0.00,meteohub,2013-05-04 18:50:00,
2013-05-04 14:55:00,68.2,40.3,30.25,South,175,5.0,8.0,36,0.00,,,0.00,meteohub,2013-05-04 18:55:00,
2013-05-04 15:00:00,67.1,38.5,30.25,SE,127,3.0,9.0,35,0.00,,,0.00,meteohub,2013-05-04 19:00:00,
2013-05-04 15:05:00,67.3,40.1,30.25,SSE,162,4.0,9.0,37,0.00,,,0.00,meteohub,2013-05-04 19:05:00,
2013-05-04 15:10:00,67.5,38.8,30.24,ENE,57,4.0,9.0,35,0.00,,,0.00,meteohub,2013-05-04 19:10:00,
2013-05-04 15:15:00,67.8,39.2,30.24,NE,38,4.0,6.0,35,0.00,,,0.00,meteohub,2013-05-04 19:15:00,
2013-05-04 15:20:00,67.6,39.0,30.24,ESE,119,2.0,6.0,35,0.00,,,0.00,meteohub,2013-05-04 19:20:00,
2013-05-04 15:25:00,67.6,39.7,30.24,SSW,200,2.0,6.0,36,0.00,,,0.00,meteohub,2013-05-04 19:25:00,
2013-05-04 15:31:00,68.5,40.5,30.24,NE,52,6.0,6.0,36,0.00,,,0.00,meteohub,2013-05-04 19:31:00,
2013-05-04 15:36:00,69.4,41.4,30.24,ENE,63,5.0,7.0,36,0.00,,,0.00,meteohub,2013-05-04 19:36:00,
2013-05-04 15:41:00,68.5,39.7,30.23,ESE,107,1.0,7.0,35,0.00,,,0.00,meteohub,2013-05-04 19:41:00,
2013-05-04 15:46:00,68.4,40.3,30.23,SE,136,0.0,7.0,36,0.00,,,0.00,meteohub,2013-05-04 19:46:00,
2013-05-04 15:51:00,68.0,40.8,30.23,South,170,3.0,7.0,37,0.00,,,0.00,meteohub,2013-05-04 19:51:00,
2013-05-04 15:56:00,67.6,39.7,30.23,NE,47,2.0,6.0,36,0.00,,,0.00,meteohub,2013-05-04 19:56:00,
2013-05-04 16:01:00,68.4,40.3,30.23,NE,52,1.0,8.0,36,0.00,,,0.00,meteohub,2013-05-04 20:01:00,
2013-05-04 16:06:00,69.1,41.0,30.23,SSE,158,5.0,8.0,36,0.00,,,0.00,meteohub,2013-05-04 20:06:00,
2013-05-04 16:11:00,68.7,39.9,30.23,ENE,72,1.0,8.0,35,0.00,,,0.00,meteohub,2013-05-04 20:11:00,
2013-05-04 16:16:00,68.2,41.0,30.22,ENE,74,3.0,7.0,37,0.00,,,0.00,meteohub,2013-05-04 20:16:00,
2013-05-04 16:21:00,68.2,41.0,30.22,ENE,69,1.0,7.0,37,0.00,,,0.00,meteohub,2013-05-04 20:21:00,
2013-05-04 16:26:00,68.4,42.4,30.22,SE,127,1.0,7.0,39,0.00,,,0.00,meteohub,2013-05-04 20:26:00,
2013-05-04 16:31:00,68.2,41.5,30.22,ENE,57,3.0,9.0,38,0.00,,,0.00,meteohub,2013-05-04 20:31:00,
2013-05-04 16:36:00,68.4,41.0,30.22,ENE,69,4.0,9.0,37,0.00,,,0.00,meteohub,2013-05-04 20:36:00,
2013-05-04 16:41:00,68.5,41.9,30.22,ESE,111,1.0,9.0,38,0.00,,,0.00,meteohub,2013-05-04 20:41:00,
2013-05-04 16:46:00,68.2,40.3,30.22,ENE,67,2.0,7.0,36,0.00,,,0.00,meteohub,2013-05-04 20:46:00,
2013-05-04 16:51:00,67.6,39.7,30.22,SE,126,2.0,7.0,36,0.00,,,0.00,meteohub,2013-05-04 20:51:00,
2013-05-04 16:56:00,67.5,40.3,30.22,SE,143,1.0,7.0,37,0.00,,,0.00,meteohub,2013-05-04 20:56:00,
2013-05-04 17:01:00,67.5,38.8,30.22,ENE,62,3.0,10.0,35,0.00,,,0.00,meteohub,2013-05-04 21:01:00,
2013-05-04 17:06:00,67.3,37.9,30.22,NE,55,3.0,10.0,34,0.00,,,0.00,meteohub,2013-05-04 21:06:00,
2013-05-04 17:11:00,66.9,36.9,30.22,SE,144,2.0,10.0,33,0.00,,,0.00,meteohub,2013-05-04 21:11:00,
2013-05-04 17:16:00,66.7,37.4,30.22,NE,55,3.0,8.0,34,0.00,,,0.00,meteohub,2013-05-04 21:16:00,
2013-05-04 17:21:00,66.7,37.4,30.22,South,171,2.0,8.0,34,0.00,,,0.00,meteohub,2013-05-04 21:21:00,
2013-05-04 17:26:00,66.6,38.1,30.22,NE,46,2.0,7.0,35,0.00,,,0.00,meteohub,2013-05-04 21:26:00,
2013-05-04 17:31:00,66.6,38.1,30.22,SE,138,1.0,6.0,35,0.00,,,0.00,meteohub,2013-05-04 21:31:00,
2013-05-04 17:37:00,66.4,37.9,30.22,ENE,70,1.0,5.0,35,0.00,,,0.00,meteohub,2013-05-04 21:37:00,
2013-05-04 17:42:00,66.6,38.1,30.22,ENE,65,1.0,5.0,35,0.00,,,0.00,meteohub,2013-05-04 21:42:00,
2013-05-04 17:47:00,66.4,37.9,30.22,ENE,58,1.0,8.0,35,0.00,,,0.00,meteohub,2013-05-04 21:47:00,
2013-05-04 17:52:00,66.0,38.3,30.22,SE,132,2.0,8.0,36,0.00,,,0.00,meteohub,2013-05-04 21:52:00,
2013-05-04 17:57:00,65.8,38.1,30.22,SE,127,1.0,8.0,36,0.00,,,0.00,meteohub,2013-05-04 21:57:00,
2013-05-04 18:02:00,65.5,37.8,30.22,NE,51,3.0,6.0,36,0.00,,,0.00,meteohub,2013-05-04 22:02:00,
2013-05-04 18:07:00,65.1,38.1,30.22,NE,49,4.0,5.0,37,0.00,,,0.00,meteohub,2013-05-04 22:07:00,
2013-05-04 18:12:00,64.9,38.1,30.22,East,89,1.0,5.0,37,0.00,,,0.00,meteohub,2013-05-04 22:12:00,
2013-05-04 18:17:00,64.8,38.5,30.22,SSE,147,2.0,9.0,38,0.00,,,0.00,meteohub,2013-05-04 22:17:00,
2013-05-04 18:22:00,64.6,37.8,30.22,South,181,3.0,9.0,37,0.00,,,0.00,meteohub,2013-05-04 22:22:00,
2013-05-04 18:27:00,64.6,39.0,30.22,East,96,1.0,9.0,39,0.00,,,0.00,meteohub,2013-05-04 22:27:00,
2013-05-04 18:32:00,64.6,37.8,30.22,East,92,2.0,7.0,37,0.00,,,0.00,meteohub,2013-05-04 22:32:00,
2013-05-04 18:37:00,64.4,36.9,30.22,ENE,67,2.0,7.0,36,0.00,,,0.00,meteohub,2013-05-04 22:37:00,
2013-05-04 18:42:00,64.2,38.1,30.22,SE,140,0.0,5.0,38,0.00,,,0.00,meteohub,2013-05-04 22:42:00,
2013-05-04 18:47:00,64.0,37.9,30.22,South,179,2.0,5.0,38,0.00,,,0.00,meteohub,2013-05-04 22:47:00,
2013-05-04 18:52:00,63.9,37.0,30.22,ESE,103,2.0,5.0,37,0.00,,,0.00,meteohub,2013-05-04 22:52:00,
2013-05-04 18:57:00,63.7,37.6,30.22,East,92,1.0,5.0,38,0.00,,,0.00,meteohub,2013-05-04 22:57:00,
2013-05-04 19:02:00,63.5,38.1,30.22,ESE,113,0.0,5.0,39,0.00,,,0.00,meteohub,2013-05-04 23:02:00,
2013-05-04 19:07:00,63.1,38.5,30.22,SSE,152,4.0,5.0,40,0.00,,,0.00,meteohub,2013-05-04 23:07:00,
2013-05-04 19:12:00,63.0,39.6,30.21,SE,144,1.0,4.0,42,0.00,,,0.00,meteohub,2013-05-04 23:12:00,
2013-05-04 19:17:00,62.8,38.7,30.22,ESE,103,0.0,4.0,41,0.00,,,0.00,meteohub,2013-05-04 23:17:00,
2013-05-04 19:22:00,62.4,37.8,30.21,SSE,163,0.0,4.0,40,0.00,,,0.00,meteohub,2013-05-04 23:22:00,
2013-05-04 19:27:00,62.2,37.6,30.22,SSE,167,0.0,3.0,40,0.00,,,0.00,meteohub,2013-05-04 23:27:00,
2013-05-04 19:32:00,62.1,37.4,30.21,South,169,0.0,3.0,40,0.00,,,0.00,meteohub,2013-05-04 23:32:00,
2013-05-04 19:37:00,61.9,37.9,30.21,South,169,0.0,2.0,41,0.00,,,0.00,meteohub,2013-05-04 23:37:00,
2013-05-04 19:42:00,61.3,37.4,30.21,South,169,0.0,2.0,41,0.00,,,0.00,meteohub,2013-05-04 23:42:00,
2013-05-04 19:47:00,61.2,39.0,30.21,South,169,0.0,2.0,44,0.00,,,0.00,meteohub,2013-05-04 23:47:00,
2013-05-04 19:52:00,60.6,39.2,30.22,SE,144,0.0,3.0,45,0.00,,,0.00,meteohub,2013-05-04 23:52:00,
2013-05-04 19:57:00,60.3,40.5,30.22,SE,144,0.0,3.0,48,0.00,,,0.00,meteohub,2013-05-04 23:57:00,
2013-05-04 20:02:00,59.7,41.5,30.22,SE,144,0.0,3.0,51,0.00,,,0.00,meteohub,2013-05-05 00:02:00,
2013-05-04 20:07:00,59.4,41.2,30.22,SE,144,0.0,1.0,51,0.00,,,0.00,meteohub,2013-05-05 00:07:00,
2013-05-04 20:12:00,58.6,40.1,30.22,SE,144,0.0,1.0,50,0.00,,,0.00,meteohub,2013-05-05 00:12:00,
2013-05-04 20:17:00,58.3,41.2,30.22,SE,144,0.0,1.0,53,0.00,,,0.00,meteohub,2013-05-05 00:17:00,
2013-05-04 20:22:00,57.7,41.7,30.22,SE,144,0.0,1.0,55,0.00,,,0.00,meteohub,2013-05-05 00:22:00,
2013-05-04 20:27:00,57.2,39.7,30.22,SE,144,0.0,1.0,52,0.00,,,0.00,meteohub,2013-05-05 00:27:00,
2013-05-04 20:32:00,56.7,39.7,30.22,SE,144,0.0,1.0,53,0.00,,,0.00,meteohub,2013-05-05 00:32:00,
2013-05-04 20:37:00,56.1,40.6,30.22,SE,144,0.0,1.0,56,0.00,,,0.00,meteohub,2013-05-05 00:37:00,
2013-05-04 20:42:00,55.8,40.8,30.22,SE,144,0.0,1.0,57,0.00,,,0.00,meteohub,2013-05-05 00:42:00,
2013-05-04 20:47:00,55.4,40.5,30.23,SE,144,0.0,1.0,57,0.00,,,0.00,meteohub,2013-05-05 00:47:00,
2013-05-04 20:52:00,55.0,41.9,30.23,SE,144,0.0,1.0,61,0.00,,,0.00,meteohub,2013-05-05 00:52:00,
2013-05-04 20:57:00,54.7,40.3,30.23,SE,144,0.0,1.0,58,0.00,,,0.00,meteohub,2013-05-05 00:57:00,
2013-05-04 21:02:00,54.0,39.9,30.23,SE,144,0.0,1.0,59,0.00,,,0.00,meteohub,2013-05-05 01:02:00,
2013-05-04 21:07:00,53.6,40.5,30.24,SE,144,0.0,0.0,61,0.00,,,0.00,meteohub,2013-05-05 01:07:00,
2013-05-04 21:12:00,53.2,40.1,30.24,SE,144,0.0,0.0,61,0.00,,,0.00,meteohub,2013-05-05 01:12:00,
2013-05-04 21:17:00,52.9,40.3,30.24,SE,144,0.0,0.0,62,0.00,,,0.00,meteohub,2013-05-05 01:17:00,
2013-05-04 21:22:00,52.5,41.5,30.24,SE,144,0.0,0.0,66,0.00,,,0.00,meteohub,2013-05-05 01:22:00,
2013-05-04 21:27:00,52.2,40.8,30.25,East,88,0.0,2.0,65,0.00,,,0.00,meteohub,2013-05-05 01:27:00,
2013-05-04 21:32:00,52.0,40.6,30.25,SSE,159,1.0,3.0,65,0.00,,,0.00,meteohub,2013-05-05 01:32:00,
2013-05-04 21:37:00,52.2,39.6,30.25,East,96,0.0,5.0,62,0.00,,,0.00,meteohub,2013-05-05 01:37:00,
2013-05-04 21:42:00,52.3,38.5,30.25,SSE,153,1.0,5.0,59,0.00,,,0.00,meteohub,2013-05-05 01:42:00,
2013-05-04 21:47:00,52.5,39.4,30.25,ESE,122,2.0,5.0,61,0.00,,,0.00,meteohub,2013-05-05 01:47:00,
2013-05-04 21:52:00,53.1,39.6,30.25,ESE,123,0.0,3.0,60,0.00,,,0.00,meteohub,2013-05-05 01:52:00,
2013-05-04 21:57:00,53.1,39.2,30.25,ESE,123,1.0,3.0,59,0.00,,,0.00,meteohub,2013-05-05 01:57:00,
2013-05-04 22:02:00,53.2,39.2,30.26,ENE,69,1.0,3.0,59,0.00,,,0.00,meteohub,2013-05-05 02:02:00,
2013-05-04 22:07:00,53.2,39.7,30.26,SSE,165,0.0,3.0,60,0.00,,,0.00,meteohub,2013-05-05 02:07:00,
2013-05-04 22:12:00,53.2,40.1,30.26,SE,130,3.0,3.0,61,0.00,,,0.00,meteohub,2013-05-05 02:12:00,
2013-05-04 22:17:00,53.2,40.6,30.26,SE,128,1.0,4.0,62,0.00,,,0.00,meteohub,2013-05-05 02:17:00,
2013-05-04 22:22:00,53.1,41.2,30.27,ESE,117,0.0,4.0,64,0.00,,,0.00,meteohub,2013-05-05 02:22:00,
2013-05-04 22:27:00,52.7,40.8,30.27,ESE,117,0.0,4.0,64,0.00,,,0.00,meteohub,2013-05-05 02:27:00,
2013-05-04 22:32:00,52.3,41.0,30.27,ESE,117,0.0,3.0,65,0.00,,,0.00,meteohub,2013-05-05 02:32:00,
2013-05-04 22:37:00,52.2,41.2,30.27,NNE,18,1.0,3.0,66,0.00,,,0.00,meteohub,2013-05-05 02:37:00,
2013-05-04 22:42:00,52.0,41.0,30.27,ENE,71,0.0,3.0,66,0.00,,,0.00,meteohub,2013-05-05 02:42:00,
2013-05-04 22:47:00,51.6,41.0,30.27,East,92,0.0,3.0,67,0.00,,,0.00,meteohub,2013-05-05 02:47:00,
2013-05-04 22:52:00,51.4,41.2,30.27,NE,42,0.0,2.0,68,0.00,,,0.00,meteohub,2013-05-05 02:52:00,
2013-05-04 22:57:00,51.4,41.2,30.27,ESE,121,0.0,2.0,68,0.00,,,0.00,meteohub,2013-05-05 02:57:00,
2013-05-04 23:02:00,51.3,41.0,30.27,ESE,121,0.0,2.0,68,0.00,,,0.00,meteohub,2013-05-05 03:02:00,
2013-05-04 23:07:00,51.1,41.7,30.27,ESE,121,0.0,2.0,70,0.00,,,0.00,meteohub,2013-05-05 03:07:00,
2013-05-04 23:12:00,50.7,41.7,30.27,ESE,121,0.0,1.0,71,0.00,,,0.00,meteohub,2013-05-05 03:12:00,
2013-05-04 23:17:00,50.4,41.4,30.27,ESE,121,0.0,0.0,71,0.00,,,0.00,meteohub,2013-05-05 03:17:00,
2013-05-04 23:22:00,50.2,41.2,30.27,ESE,121,0.0,0.0,71,0.00,,,0.00,meteohub,2013-05-05 03:22:00,
2013-05-04 23:27:00,49.6,41.0,30.27,ESE,121,0.0,0.0,72,0.00,,,0.00,meteohub,2013-05-05 03:27:00,
2013-05-04 23:32:00,49.5,41.2,30.27,ESE,121,0.0,0.0,73,0.00,,,0.00,meteohub,2013-05-05 03:32:00,
2013-05-04 23:37:00,49.3,41.0,30.27,ESE,121,0.0,0.0,73,0.00,,,0.00,meteohub,2013-05-05 03:37:00,
2013-05-04 23:42:00,49.3,41.0,30.27,ESE,121,0.0,0.0,73,0.00,,,0.00,meteohub,2013-05-05 03:42:00,
2013-05-04 23:47:00,49.1,40.8,30.27,ESE,121,0.0,0.0,73,0.00,,,0.00,meteohub,2013-05-05 03:47:00,
2013-05-04 23:52:00,48.7,40.8,30.27,ESE,121,0.0,0.0,74,0.00,,,0.00,meteohub,2013-05-05 03:52:00,
2013-05-04 23:57:00,48.6,40.6,30.27,ESE,119,1.0,0.0,74,0.00,,,0.00,meteohub,2013-05-05 03:57:00,